sensor_id;sensor_type;location;lat;lon;timestamp;temperature;humidity
78514;SHT31;67814;51.976;5.810;2023-12-29T00:02:27;13.0;63.8
78514;SHT31;67814;51.976;5.810;2023-12-29T00:04:55;13.0;63.9
78514;SHT31;67814;51.976;5.810;2023-12-29T00:07:24;13.0;63.6
78514;SHT31;67814;51.976;5.810;2023-12-29T00:09:52;13.1;63.5
78514;SHT31;67814;51.976;5.810;2023-12-29T00:12:21;13.1;63.7
78514;SHT31;67814;51.976;5.810;2023-12-29T00:14:51;13.1;63.5
78514;SHT31;67814;51.976;5.810;2023-12-29T00:17:20;13.1;63.5
78514;SHT31;67814;51.976;5.810;2023-12-29T00:19:48;13.1;63.7
78514;SHT31;67814;51.976;5.810;2023-12-29T00:22:17;13.1;63.6
78514;SHT31;67814;51.976;5.810;2023-12-29T00:24:46;13.1;63.7
78514;SHT31;67814;51.976;5.810;2023-12-29T00:27:15;13.1;65.5
78514;SHT31;67814;51.976;5.810;2023-12-29T00:29:43;13.1;66.1
78514;SHT31;67814;51.976;5.810;2023-12-29T00:32:12;13.1;65.9
78514;SHT31;67814;51.976;5.810;2023-12-29T00:34:40;13.1;66.5
78514;SHT31;67814;51.976;5.810;2023-12-29T00:37:09;13.0;66.2
78514;SHT31;67814;51.976;5.810;2023-12-29T00:39:37;13.0;66.2
78514;SHT31;67814;51.976;5.810;2023-12-29T00:42:07;13.0;65.9
78514;SHT31;67814;51.976;5.810;2023-12-29T00:44:36;12.9;66.0
78514;SHT31;67814;51.976;5.810;2023-12-29T00:47:04;12.9;66.0
78514;SHT31;67814;51.976;5.810;2023-12-29T00:49:33;12.9;65.4
78514;SHT31;67814;51.976;5.810;2023-12-29T00:52:02;12.9;65.3
78514;SHT31;67814;51.976;5.810;2023-12-29T00:54:33;12.9;65.3
78514;SHT31;67814;51.976;5.810;2023-12-29T00:57:01;12.9;65.0
78514;SHT31;67814;51.976;5.810;2023-12-29T00:59:30;12.9;65.1
78514;SHT31;67814;51.976;5.810;2023-12-29T01:01:59;12.9;65.1
78514;SHT31;67814;51.976;5.810;2023-12-29T01:04:27;12.9;64.8
78514;SHT31;67814;51.976;5.810;2023-12-29T01:06:56;12.9;65.0
78514;SHT31;67814;51.976;5.810;2023-12-29T01:09:25;12.9;65.0
78514;SHT31;67814;51.976;5.810;2023-12-29T01:11:54;12.9;65.0
78514;SHT31;67814;51.976;5.810;2023-12-29T01:14:22;12.9;65.0
78514;SHT31;67814;51.976;5.810;2023-12-29T01:16:51;12.9;65.2
78514;SHT31;67814;51.976;5.810;2023-12-29T01:19:19;12.9;65.5
78514;SHT31;67814;51.976;5.810;2023-12-29T01:21:48;12.9;65.3
78514;SHT31;67814;51.976;5.810;2023-12-29T01:24:17;12.9;65.6
78514;SHT31;67814;51.976;5.810;2023-12-29T01:26:45;12.9;65.6
78514;SHT31;67814;51.976;5.810;2023-12-29T01:29:14;12.9;65.7
78514;SHT31;67814;51.976;5.810;2023-12-29T01:31:42;12.9;66.0
78514;SHT31;67814;51.976;5.810;2023-12-29T01:34:13;12.9;66.0
78514;SHT31;67814;51.976;5.810;2023-12-29T01:36:42;12.9;66.3
78514;SHT31;67814;51.976;5.810;2023-12-29T01:39:10;12.9;66.2
78514;SHT31;67814;51.976;5.810;2023-12-29T01:41:39;12.9;66.3
78514;SHT31;67814;51.976;5.810;2023-12-29T01:44:21;12.9;66.1
78514;SHT31;67814;51.976;5.810;2023-12-29T01:46:53;12.9;66.3
78514;SHT31;67814;51.976;5.810;2023-12-29T01:49:22;12.9;66.3
78514;SHT31;67814;51.976;5.810;2023-12-29T01:51:54;12.9;66.2
78514;SHT31;67814;51.976;5.810;2023-12-29T01:54:25;12.9;66.1
78514;SHT31;67814;51.976;5.810;2023-12-29T01:56:57;12.9;66.4
78514;SHT31;67814;51.976;5.810;2023-12-29T01:59:28;12.9;66.4
78514;SHT31;67814;51.976;5.810;2023-12-29T02:01:58;12.9;66.4
78514;SHT31;67814;51.976;5.810;2023-12-29T02:04:27;12.9;66.3
78514;SHT31;67814;51.976;5.810;2023-12-29T02:06:56;12.9;66.4
78514;SHT31;67814;51.976;5.810;2023-12-29T02:09:25;12.9;66.5
78514;SHT31;67814;51.976;5.810;2023-12-29T02:11:54;12.9;66.5
78514;SHT31;67814;51.976;5.810;2023-12-29T02:14:23;12.9;66.6
78514;SHT31;67814;51.976;5.810;2023-12-29T02:16:58;12.9;66.6
78514;SHT31;67814;51.976;5.810;2023-12-29T02:19:37;12.9;66.9
78514;SHT31;67814;51.976;5.810;2023-12-29T02:22:07;12.9;67.1
78514;SHT31;67814;51.976;5.810;2023-12-29T02:24:37;12.9;68.2
78514;SHT31;67814;51.976;5.810;2023-12-29T02:27:21;12.9;68.8
78514;SHT31;67814;51.976;5.810;2023-12-29T02:30:32;12.8;68.6
78514;SHT31;67814;51.976;5.810;2023-12-29T02:33:06;12.8;68.5
78514;SHT31;67814;51.976;5.810;2023-12-29T02:35:39;12.8;68.8
78514;SHT31;67814;51.976;5.810;2023-12-29T02:38:09;12.8;68.7
78514;SHT31;67814;51.976;5.810;2023-12-29T02:40:39;12.7;68.8
78514;SHT31;67814;51.976;5.810;2023-12-29T02:43:08;12.7;69.0
78514;SHT31;67814;51.976;5.810;2023-12-29T02:45:37;12.7;69.3
78514;SHT31;67814;51.976;5.810;2023-12-29T02:48:06;12.6;69.3
78514;SHT31;67814;51.976;5.810;2023-12-29T02:50:34;12.6;69.3
78514;SHT31;67814;51.976;5.810;2023-12-29T02:53:03;12.6;69.5
78514;SHT31;67814;51.976;5.810;2023-12-29T02:55:32;12.6;69.6
78514;SHT31;67814;51.976;5.810;2023-12-29T02:58:01;12.6;69.3
78514;SHT31;67814;51.976;5.810;2023-12-29T03:00:30;12.6;69.3
78514;SHT31;67814;51.976;5.810;2023-12-29T03:02:58;12.6;69.2
78514;SHT31;67814;51.976;5.810;2023-12-29T03:05:27;12.6;69.3
78514;SHT31;67814;51.976;5.810;2023-12-29T03:07:55;12.6;69.1
78514;SHT31;67814;51.976;5.810;2023-12-29T03:10:24;12.6;69.3
78514;SHT31;67814;51.976;5.810;2023-12-29T03:12:53;12.6;69.5
78514;SHT31;67814;51.976;5.810;2023-12-29T03:15:21;12.6;69.3
78514;SHT31;67814;51.976;5.810;2023-12-29T03:17:50;12.6;69.2
78514;SHT31;67814;51.976;5.810;2023-12-29T03:20:18;12.6;69.1
78514;SHT31;67814;51.976;5.810;2023-12-29T03:22:47;12.6;69.3
78514;SHT31;67814;51.976;5.810;2023-12-29T03:25:16;12.6;68.4
78514;SHT31;67814;51.976;5.810;2023-12-29T03:27:44;12.6;68.1
78514;SHT31;67814;51.976;5.810;2023-12-29T03:30:13;12.6;68.2
78514;SHT31;67814;51.976;5.810;2023-12-29T03:32:42;12.6;67.8
78514;SHT31;67814;51.976;5.810;2023-12-29T03:35:11;12.6;67.9
78514;SHT31;67814;51.976;5.810;2023-12-29T03:37:40;12.6;67.9
78514;SHT31;67814;51.976;5.810;2023-12-29T03:40:09;12.6;67.7
78514;SHT31;67814;51.976;5.810;2023-12-29T03:42:40;12.7;67.6
78514;SHT31;67814;51.976;5.810;2023-12-29T03:45:09;12.7;67.1
78514;SHT31;67814;51.976;5.810;2023-12-29T03:47:38;12.7;66.9
78514;SHT31;67814;51.976;5.810;2023-12-29T03:50:07;12.7;66.5
78514;SHT31;67814;51.976;5.810;2023-12-29T03:52:35;12.7;66.6
78514;SHT31;67814;51.976;5.810;2023-12-29T03:55:05;12.7;66.9
78514;SHT31;67814;51.976;5.810;2023-12-29T03:57:34;12.7;67.0
78514;SHT31;67814;51.976;5.810;2023-12-29T04:00:03;12.7;66.7
78514;SHT31;67814;51.976;5.810;2023-12-29T04:02:32;12.7;66.3
78514;SHT31;67814;51.976;5.810;2023-12-29T04:05:01;12.7;65.9
78514;SHT31;67814;51.976;5.810;2023-12-29T04:07:31;12.8;65.8
78514;SHT31;67814;51.976;5.810;2023-12-29T04:10:00;12.8;65.5
78514;SHT31;67814;51.976;5.810;2023-12-29T04:12:30;12.8;65.3
78514;SHT31;67814;51.976;5.810;2023-12-29T04:14:58;12.8;64.8
78514;SHT31;67814;51.976;5.810;2023-12-29T04:17:29;12.8;65.1
78514;SHT31;67814;51.976;5.810;2023-12-29T04:19:57;12.8;64.8
78514;SHT31;67814;51.976;5.810;2023-12-29T04:22:26;12.8;64.9
78514;SHT31;67814;51.976;5.810;2023-12-29T04:24:54;12.8;64.6
78514;SHT31;67814;51.976;5.810;2023-12-29T04:27:23;12.9;64.6
78514;SHT31;67814;51.976;5.810;2023-12-29T04:29:52;12.9;64.3
78514;SHT31;67814;51.976;5.810;2023-12-29T04:32:20;12.9;64.3
78514;SHT31;67814;51.976;5.810;2023-12-29T04:34:49;12.9;64.3
78514;SHT31;67814;51.976;5.810;2023-12-29T04:37:17;12.9;64.1
78514;SHT31;67814;51.976;5.810;2023-12-29T04:39:46;12.9;63.9
78514;SHT31;67814;51.976;5.810;2023-12-29T04:42:15;12.9;63.9
78514;SHT31;67814;51.976;5.810;2023-12-29T04:44:44;12.8;64.2
78514;SHT31;67814;51.976;5.810;2023-12-29T04:47:13;12.8;64.2
78514;SHT31;67814;51.976;5.810;2023-12-29T04:49:43;12.8;64.2
78514;SHT31;67814;51.976;5.810;2023-12-29T04:52:12;12.9;64.0
78514;SHT31;67814;51.976;5.810;2023-12-29T04:54:40;12.9;64.2
78514;SHT31;67814;51.976;5.810;2023-12-29T04:57:09;12.9;64.1
78514;SHT31;67814;51.976;5.810;2023-12-29T04:59:38;12.9;64.0
78514;SHT31;67814;51.976;5.810;2023-12-29T05:02:07;12.9;63.7
78514;SHT31;67814;51.976;5.810;2023-12-29T05:04:35;12.9;63.4
78514;SHT31;67814;51.976;5.810;2023-12-29T05:07:05;12.9;63.9
78514;SHT31;67814;51.976;5.810;2023-12-29T05:09:33;12.9;63.5
78514;SHT31;67814;51.976;5.810;2023-12-29T05:12:02;12.9;63.4
78514;SHT31;67814;51.976;5.810;2023-12-29T05:14:31;12.9;63.6
78514;SHT31;67814;51.976;5.810;2023-12-29T05:17:00;12.9;63.5
78514;SHT31;67814;51.976;5.810;2023-12-29T05:19:28;12.9;63.2
78514;SHT31;67814;51.976;5.810;2023-12-29T05:21:57;12.8;63.3
78514;SHT31;67814;51.976;5.810;2023-12-29T05:24:25;12.8;63.4
78514;SHT31;67814;51.976;5.810;2023-12-29T05:26:56;12.8;63.3
78514;SHT31;67814;51.976;5.810;2023-12-29T05:29:24;12.8;63.3
78514;SHT31;67814;51.976;5.810;2023-12-29T05:31:53;12.8;63.4
78514;SHT31;67814;51.976;5.810;2023-12-29T05:34:21;12.8;63.5
78514;SHT31;67814;51.976;5.810;2023-12-29T05:36:50;12.8;63.4
78514;SHT31;67814;51.976;5.810;2023-12-29T05:39:19;12.8;63.5
78514;SHT31;67814;51.976;5.810;2023-12-29T05:41:47;12.8;63.6
78514;SHT31;67814;51.976;5.810;2023-12-29T05:44:16;12.8;63.7
78514;SHT31;67814;51.976;5.810;2023-12-29T05:46:47;12.8;63.6
78514;SHT31;67814;51.976;5.810;2023-12-29T05:49:16;12.7;63.5
78514;SHT31;67814;51.976;5.810;2023-12-29T05:51:45;12.7;63.6
78514;SHT31;67814;51.976;5.810;2023-12-29T05:54:13;12.7;63.6
78514;SHT31;67814;51.976;5.810;2023-12-29T05:56:43;12.7;63.6
78514;SHT31;67814;51.976;5.810;2023-12-29T05:59:11;12.7;63.7
78514;SHT31;67814;51.976;5.810;2023-12-29T06:01:40;12.7;63.9
78514;SHT31;67814;51.976;5.810;2023-12-29T06:04:09;12.7;64.2
78514;SHT31;67814;51.976;5.810;2023-12-29T06:06:37;12.6;64.2
78514;SHT31;67814;51.976;5.810;2023-12-29T06:09:06;12.6;64.3
78514;SHT31;67814;51.976;5.810;2023-12-29T06:11:35;12.6;64.5
78514;SHT31;67814;51.976;5.810;2023-12-29T06:14:04;12.6;64.3
78514;SHT31;67814;51.976;5.810;2023-12-29T06:16:34;12.6;64.5
78514;SHT31;67814;51.976;5.810;2023-12-29T06:19:03;12.6;64.5
78514;SHT31;67814;51.976;5.810;2023-12-29T06:21:31;12.6;64.4
78514;SHT31;67814;51.976;5.810;2023-12-29T06:24:00;12.6;64.5
78514;SHT31;67814;51.976;5.810;2023-12-29T06:26:29;12.6;64.7
78514;SHT31;67814;51.976;5.810;2023-12-29T06:28:57;12.6;64.7
78514;SHT31;67814;51.976;5.810;2023-12-29T06:31:26;12.6;64.7
78514;SHT31;67814;51.976;5.810;2023-12-29T06:33:54;12.6;64.7
78514;SHT31;67814;51.976;5.810;2023-12-29T06:36:26;12.6;65.1
78514;SHT31;67814;51.976;5.810;2023-12-29T06:38:55;12.6;65.2
78514;SHT31;67814;51.976;5.810;2023-12-29T06:41:24;12.6;65.2
78514;SHT31;67814;51.976;5.810;2023-12-29T06:43:55;12.6;65.2
78514;SHT31;67814;51.976;5.810;2023-12-29T06:46:23;12.6;65.3
78514;SHT31;67814;51.976;5.810;2023-12-29T06:48:52;12.6;65.6
78514;SHT31;67814;51.976;5.810;2023-12-29T06:51:23;12.6;66.0
78514;SHT31;67814;51.976;5.810;2023-12-29T06:53:53;12.6;66.0
78514;SHT31;67814;51.976;5.810;2023-12-29T06:56:22;12.6;66.1
78514;SHT31;67814;51.976;5.810;2023-12-29T06:58:52;12.6;66.4
78514;SHT31;67814;51.976;5.810;2023-12-29T07:01:21;12.6;66.6
78514;SHT31;67814;51.976;5.810;2023-12-29T07:03:50;12.6;67.9
78514;SHT31;67814;51.976;5.810;2023-12-29T07:06:19;12.6;68.7
78514;SHT31;67814;51.976;5.810;2023-12-29T07:08:48;12.5;69.1
78514;SHT31;67814;51.976;5.810;2023-12-29T07:11:16;12.5;69.1
78514;SHT31;67814;51.976;5.810;2023-12-29T07:13:45;12.5;69.4
78514;SHT31;67814;51.976;5.810;2023-12-29T07:16:13;12.4;70.3
78514;SHT31;67814;51.976;5.810;2023-12-29T07:18:42;12.4;70.2
78514;SHT31;67814;51.976;5.810;2023-12-29T07:21:14;12.4;70.4
78514;SHT31;67814;51.976;5.810;2023-12-29T07:23:43;12.3;70.5
78514;SHT31;67814;51.976;5.810;2023-12-29T07:26:13;12.3;71.1
78514;SHT31;67814;51.976;5.810;2023-12-29T07:28:42;12.3;71.5
78514;SHT31;67814;51.976;5.810;2023-12-29T07:31:11;12.2;71.8
78514;SHT31;67814;51.976;5.810;2023-12-29T07:33:40;12.2;72.1
78514;SHT31;67814;51.976;5.810;2023-12-29T07:36:09;12.2;72.2
78514;SHT31;67814;51.976;5.810;2023-12-29T07:38:40;12.1;72.3
78514;SHT31;67814;51.976;5.810;2023-12-29T07:41:09;12.1;72.4
78514;SHT31;67814;51.976;5.810;2023-12-29T07:43:37;12.1;72.8
78514;SHT31;67814;51.976;5.810;2023-12-29T07:46:06;12.1;73.1
78514;SHT31;67814;51.976;5.810;2023-12-29T07:48:34;12.0;73.5
78514;SHT31;67814;51.976;5.810;2023-12-29T07:51:06;12.0;73.8
78514;SHT31;67814;51.976;5.810;2023-12-29T07:53:34;12.0;74.4
78514;SHT31;67814;51.976;5.810;2023-12-29T07:56:03;11.9;74.4
78514;SHT31;67814;51.976;5.810;2023-12-29T07:58:32;11.9;74.6
78514;SHT31;67814;51.976;5.810;2023-12-29T08:01:01;11.9;74.7
78514;SHT31;67814;51.976;5.810;2023-12-29T08:03:29;11.8;75.2
78514;SHT31;67814;51.976;5.810;2023-12-29T08:05:58;11.8;75.1
78514;SHT31;67814;51.976;5.810;2023-12-29T08:08:26;11.8;75.2
78514;SHT31;67814;51.976;5.810;2023-12-29T08:10:55;11.8;75.2
78514;SHT31;67814;51.976;5.810;2023-12-29T08:13:23;11.8;75.3
78514;SHT31;67814;51.976;5.810;2023-12-29T08:15:52;11.7;75.6
78514;SHT31;67814;51.976;5.810;2023-12-29T08:18:21;11.7;75.8
78514;SHT31;67814;51.976;5.810;2023-12-29T08:20:49;11.7;75.9
78514;SHT31;67814;51.976;5.810;2023-12-29T08:23:18;11.7;76.0
78514;SHT31;67814;51.976;5.810;2023-12-29T08:25:47;11.7;75.9
78514;SHT31;67814;51.976;5.810;2023-12-29T08:28:16;11.7;75.5
78514;SHT31;67814;51.976;5.810;2023-12-29T08:30:44;11.7;75.7
78514;SHT31;67814;51.976;5.810;2023-12-29T08:33:13;11.7;75.9
78514;SHT31;67814;51.976;5.810;2023-12-29T08:35:46;11.7;75.8
78514;SHT31;67814;51.976;5.810;2023-12-29T08:38:15;11.7;75.7
78514;SHT31;67814;51.976;5.810;2023-12-29T08:40:43;11.7;75.8
78514;SHT31;67814;51.976;5.810;2023-12-29T08:43:12;11.7;75.7
78514;SHT31;67814;51.976;5.810;2023-12-29T08:45:42;11.7;75.6
78514;SHT31;67814;51.976;5.810;2023-12-29T08:48:11;11.8;75.2
78514;SHT31;67814;51.976;5.810;2023-12-29T08:50:40;11.8;75.3
78514;SHT31;67814;51.976;5.810;2023-12-29T08:53:09;11.8;74.8
78514;SHT31;67814;51.976;5.810;2023-12-29T08:55:38;11.8;75.1
78514;SHT31;67814;51.976;5.810;2023-12-29T08:58:06;11.9;74.7
78514;SHT31;67814;51.976;5.810;2023-12-29T09:00:35;11.9;74.6
78514;SHT31;67814;51.976;5.810;2023-12-29T09:03:04;11.9;74.4
78514;SHT31;67814;51.976;5.810;2023-12-29T09:05:33;11.9;74.2
78514;SHT31;67814;51.976;5.810;2023-12-29T09:08:01;12.0;74.0
78514;SHT31;67814;51.976;5.810;2023-12-29T09:10:31;12.0;74.2
78514;SHT31;67814;51.976;5.810;2023-12-29T09:12:59;12.0;73.8
78514;SHT31;67814;51.976;5.810;2023-12-29T09:15:28;12.0;73.9
78514;SHT31;67814;51.976;5.810;2023-12-29T09:17:56;12.1;73.7
78514;SHT31;67814;51.976;5.810;2023-12-29T09:20:25;12.1;73.6
78514;SHT31;67814;51.976;5.810;2023-12-29T09:22:53;12.1;73.7
78514;SHT31;67814;51.976;5.810;2023-12-29T09:25:22;12.1;73.4
78514;SHT31;67814;51.976;5.810;2023-12-29T09:27:51;12.2;72.8
78514;SHT31;67814;51.976;5.810;2023-12-29T09:30:19;12.2;72.9
78514;SHT31;67814;51.976;5.810;2023-12-29T09:32:48;12.2;72.7
78514;SHT31;67814;51.976;5.810;2023-12-29T09:35:17;12.2;72.6
78514;SHT31;67814;51.976;5.810;2023-12-29T09:37:47;12.3;72.4
78514;SHT31;67814;51.976;5.810;2023-12-29T09:40:16;12.3;72.1
78514;SHT31;67814;51.976;5.810;2023-12-29T09:42:46;12.3;72.3
78514;SHT31;67814;51.976;5.810;2023-12-29T09:45:22;12.4;72.0
78514;SHT31;67814;51.976;5.810;2023-12-29T09:47:52;12.4;71.5
78514;SHT31;67814;51.976;5.810;2023-12-29T09:50:24;12.4;71.8
78514;SHT31;67814;51.976;5.810;2023-12-29T09:52:55;12.4;72.0
78514;SHT31;67814;51.976;5.810;2023-12-29T09:55:24;12.5;71.7
78514;SHT31;67814;51.976;5.810;2023-12-29T09:57:53;12.5;71.3
78514;SHT31;67814;51.976;5.810;2023-12-29T10:00:23;12.5;70.8
78514;SHT31;67814;51.976;5.810;2023-12-29T10:02:52;12.6;71.2
78514;SHT31;67814;51.976;5.810;2023-12-29T10:05:23;12.6;70.9
78514;SHT31;67814;51.976;5.810;2023-12-29T10:07:53;12.6;70.6
78514;SHT31;67814;51.976;5.810;2023-12-29T10:10:24;12.6;70.6
78514;SHT31;67814;51.976;5.810;2023-12-29T10:12:56;12.7;70.4
78514;SHT31;67814;51.976;5.810;2023-12-29T10:15:34;12.7;70.1
78514;SHT31;67814;51.976;5.810;2023-12-29T10:18:09;12.7;70.1
78514;SHT31;67814;51.976;5.810;2023-12-29T10:20:46;12.8;70.2
78514;SHT31;67814;51.976;5.810;2023-12-29T10:23:20;12.8;70.3
78514;SHT31;67814;51.976;5.810;2023-12-29T10:25:52;12.8;70.2
78514;SHT31;67814;51.976;5.810;2023-12-29T10:28:21;12.8;70.3
78514;SHT31;67814;51.976;5.810;2023-12-29T10:30:49;12.8;70.1
78514;SHT31;67814;51.976;5.810;2023-12-29T10:33:21;12.8;70.2
78514;SHT31;67814;51.976;5.810;2023-12-29T10:36:01;12.8;69.8
78514;SHT31;67814;51.976;5.810;2023-12-29T10:38:33;12.9;70.0
78514;SHT31;67814;51.976;5.810;2023-12-29T10:41:20;12.9;70.0
78514;SHT31;67814;51.976;5.810;2023-12-29T10:43:51;12.9;70.3
78514;SHT31;67814;51.976;5.810;2023-12-29T10:46:27;12.9;69.9
78514;SHT31;67814;51.976;5.810;2023-12-29T10:49:08;12.9;69.8
78514;SHT31;67814;51.976;5.810;2023-12-29T10:51:37;13.0;69.7
78514;SHT31;67814;51.976;5.810;2023-12-29T10:54:06;13.0;69.6
78514;SHT31;67814;51.976;5.810;2023-12-29T10:56:35;13.0;69.7
78514;SHT31;67814;51.976;5.810;2023-12-29T10:59:05;13.1;69.4
78514;SHT31;67814;51.976;5.810;2023-12-29T11:01:35;13.1;69.4
78514;SHT31;67814;51.976;5.810;2023-12-29T11:04:05;13.1;68.9
78514;SHT31;67814;51.976;5.810;2023-12-29T11:06:42;13.2;68.4
78514;SHT31;67814;51.976;5.810;2023-12-29T11:09:13;13.2;68.1
78514;SHT31;67814;51.976;5.810;2023-12-29T11:11:43;13.2;68.1
78514;SHT31;67814;51.976;5.810;2023-12-29T11:14:13;13.2;67.7
78514;SHT31;67814;51.976;5.810;2023-12-29T11:16:43;13.2;68.0
78514;SHT31;67814;51.976;5.810;2023-12-29T11:19:12;13.3;67.4
78514;SHT31;67814;51.976;5.810;2023-12-29T11:21:44;13.3;67.0
78514;SHT31;67814;51.976;5.810;2023-12-29T11:24:13;13.3;67.2
78514;SHT31;67814;51.976;5.810;2023-12-29T11:26:43;13.3;66.8
78514;SHT31;67814;51.976;5.810;2023-12-29T11:29:13;13.3;66.5
78514;SHT31;67814;51.976;5.810;2023-12-29T11:31:43;13.3;66.5
78514;SHT31;67814;51.976;5.810;2023-12-29T11:34:20;13.3;66.0
78514;SHT31;67814;51.976;5.810;2023-12-29T11:36:56;13.3;65.9
78514;SHT31;67814;51.976;5.810;2023-12-29T11:39:38;13.3;65.3
78514;SHT31;67814;51.976;5.810;2023-12-29T11:42:17;13.3;65.4
78514;SHT31;67814;51.976;5.810;2023-12-29T11:44:47;13.4;65.2
78514;SHT31;67814;51.976;5.810;2023-12-29T11:47:37;13.4;65.4
78514;SHT31;67814;51.976;5.810;2023-12-29T11:50:08;13.4;65.0
78514;SHT31;67814;51.976;5.810;2023-12-29T11:52:37;13.4;64.9
78514;SHT31;67814;51.976;5.810;2023-12-29T11:55:11;13.4;65.2
78514;SHT31;67814;51.976;5.810;2023-12-29T11:57:41;13.4;65.2
78514;SHT31;67814;51.976;5.810;2023-12-29T12:00:11;13.4;64.8
78514;SHT31;67814;51.976;5.810;2023-12-29T12:02:40;13.4;65.3
78514;SHT31;67814;51.976;5.810;2023-12-29T12:05:10;13.4;65.1
78514;SHT31;67814;51.976;5.810;2023-12-29T12:08:29;13.4;65.1
78514;SHT31;67814;51.976;5.810;2023-12-29T12:13:50;13.5;65.4
78514;SHT31;67814;51.976;5.810;2023-12-29T12:16:50;13.5;65.5
78514;SHT31;67814;51.976;5.810;2023-12-29T12:19:21;13.5;65.2
78514;SHT31;67814;51.976;5.810;2023-12-29T12:21:55;13.5;65.0
78514;SHT31;67814;51.976;5.810;2023-12-29T12:24:24;13.5;65.1
78514;SHT31;67814;51.976;5.810;2023-12-29T12:26:54;13.5;65.2
78514;SHT31;67814;51.976;5.810;2023-12-29T12:29:22;13.5;65.0
78514;SHT31;67814;51.976;5.810;2023-12-29T12:31:56;13.5;65.1
78514;SHT31;67814;51.976;5.810;2023-12-29T12:34:26;13.6;65.2
78514;SHT31;67814;51.976;5.810;2023-12-29T12:37:01;13.6;65.1
78514;SHT31;67814;51.976;5.810;2023-12-29T12:39:40;13.6;64.9
78514;SHT31;67814;51.976;5.810;2023-12-29T12:42:11;13.6;65.2
78514;SHT31;67814;51.976;5.810;2023-12-29T12:44:42;13.6;65.1
78514;SHT31;67814;51.976;5.810;2023-12-29T12:47:27;13.7;65.4
78514;SHT31;67814;51.976;5.810;2023-12-29T12:49:52;13.7;64.9
78514;SHT31;67814;51.976;5.810;2023-12-29T12:52:22;13.7;64.9
78514;SHT31;67814;51.976;5.810;2023-12-29T12:54:54;13.7;64.9
78514;SHT31;67814;51.976;5.810;2023-12-29T12:57:25;13.6;65.0
78514;SHT31;67814;51.976;5.810;2023-12-29T12:59:54;13.6;65.0
78514;SHT31;67814;51.976;5.810;2023-12-29T13:02:25;13.6;65.1
78514;SHT31;67814;51.976;5.810;2023-12-29T13:04:55;13.6;64.9
78514;SHT31;67814;51.976;5.810;2023-12-29T13:07:24;13.6;65.1
78514;SHT31;67814;51.976;5.810;2023-12-29T13:09:53;13.6;65.1
78514;SHT31;67814;51.976;5.810;2023-12-29T13:12:24;13.6;65.0
78514;SHT31;67814;51.976;5.810;2023-12-29T13:14:54;13.6;65.3
78514;SHT31;67814;51.976;5.810;2023-12-29T13:17:28;13.6;65.1
78514;SHT31;67814;51.976;5.810;2023-12-29T13:19:57;13.6;65.5
78514;SHT31;67814;51.976;5.810;2023-12-29T13:22:27;13.6;65.1
78514;SHT31;67814;51.976;5.810;2023-12-29T13:24:56;13.6;65.3
78514;SHT31;67814;51.976;5.810;2023-12-29T13:27:24;13.6;65.4
78514;SHT31;67814;51.976;5.810;2023-12-29T13:29:54;13.6;65.1
78514;SHT31;67814;51.976;5.810;2023-12-29T13:32:24;13.6;65.4
78514;SHT31;67814;51.976;5.810;2023-12-29T13:35:04;13.6;65.4
78514;SHT31;67814;51.976;5.810;2023-12-29T13:37:37;13.6;65.4
78514;SHT31;67814;51.976;5.810;2023-12-29T13:40:14;13.6;65.5
78514;SHT31;67814;51.976;5.810;2023-12-29T13:42:47;13.6;65.3
78514;SHT31;67814;51.976;5.810;2023-12-29T13:45:18;13.6;65.8
78514;SHT31;67814;51.976;5.810;2023-12-29T13:47:47;13.6;65.6
78514;SHT31;67814;51.976;5.810;2023-12-29T13:50:16;13.6;65.4
78514;SHT31;67814;51.976;5.810;2023-12-29T13:52:45;13.5;65.8
78514;SHT31;67814;51.976;5.810;2023-12-29T13:55:24;13.5;65.8
78514;SHT31;67814;51.976;5.810;2023-12-29T13:57:53;13.5;66.3
78514;SHT31;67814;51.976;5.810;2023-12-29T14:00:26;13.5;66.0
78514;SHT31;67814;51.976;5.810;2023-12-29T14:03:05;13.5;66.4
78514;SHT31;67814;51.976;5.810;2023-12-29T14:05:47;13.5;66.5
78514;SHT31;67814;51.976;5.810;2023-12-29T14:08:25;13.5;66.9
78514;SHT31;67814;51.976;5.810;2023-12-29T14:10:55;13.5;66.8
78514;SHT31;67814;51.976;5.810;2023-12-29T14:13:24;13.5;67.2
78514;SHT31;67814;51.976;5.810;2023-12-29T14:15:53;13.6;66.8
78514;SHT31;67814;51.976;5.810;2023-12-29T14:18:47;13.6;66.6
78514;SHT31;67814;51.976;5.810;2023-12-29T14:21:27;13.6;66.7
78514;SHT31;67814;51.976;5.810;2023-12-29T14:24:07;13.6;66.8
78514;SHT31;67814;51.976;5.810;2023-12-29T14:26:36;13.6;66.6
78514;SHT31;67814;51.976;5.810;2023-12-29T14:29:06;13.7;66.5
78514;SHT31;67814;51.976;5.810;2023-12-29T14:31:40;13.7;66.5
78514;SHT31;67814;51.976;5.810;2023-12-29T14:34:10;13.7;66.5
78514;SHT31;67814;51.976;5.810;2023-12-29T14:36:40;13.7;66.6
78514;SHT31;67814;51.976;5.810;2023-12-29T14:39:10;13.7;67.1
78514;SHT31;67814;51.976;5.810;2023-12-29T14:41:39;13.7;67.5
78514;SHT31;67814;51.976;5.810;2023-12-29T14:44:08;13.7;68.5
78514;SHT31;67814;51.976;5.810;2023-12-29T14:46:37;13.7;69.4
78514;SHT31;67814;51.976;5.810;2023-12-29T14:49:06;13.6;69.4
78514;SHT31;67814;51.976;5.810;2023-12-29T14:51:36;13.6;69.7
78514;SHT31;67814;51.976;5.810;2023-12-29T14:54:04;13.5;69.9
78514;SHT31;67814;51.976;5.810;2023-12-29T14:56:33;13.4;70.5
78514;SHT31;67814;51.976;5.810;2023-12-29T14:59:02;13.2;70.8
78514;SHT31;67814;51.976;5.810;2023-12-29T15:01:30;13.1;71.3
78514;SHT31;67814;51.976;5.810;2023-12-29T15:03:59;13.0;72.0
78514;SHT31;67814;51.976;5.810;2023-12-29T15:06:28;12.9;72.2
78514;SHT31;67814;51.976;5.810;2023-12-29T15:08:57;12.9;72.7
78514;SHT31;67814;51.976;5.810;2023-12-29T15:11:25;12.8;73.3
78514;SHT31;67814;51.976;5.810;2023-12-29T15:13:54;12.7;73.7
78514;SHT31;67814;51.976;5.810;2023-12-29T15:16:22;12.7;73.7
78514;SHT31;67814;51.976;5.810;2023-12-29T15:18:51;12.7;73.7
78514;SHT31;67814;51.976;5.810;2023-12-29T15:21:20;12.6;74.0
78514;SHT31;67814;51.976;5.810;2023-12-29T15:23:50;12.6;74.3
78514;SHT31;67814;51.976;5.810;2023-12-29T15:26:20;12.6;74.5
78514;SHT31;67814;51.976;5.810;2023-12-29T15:28:50;12.5;75.0
78514;SHT31;67814;51.976;5.810;2023-12-29T15:31:21;12.5;75.4
78514;SHT31;67814;51.976;5.810;2023-12-29T15:33:50;12.5;75.4
78514;SHT31;67814;51.976;5.810;2023-12-29T15:36:19;12.5;75.3
78514;SHT31;67814;51.976;5.810;2023-12-29T15:38:50;12.5;75.3
78514;SHT31;67814;51.976;5.810;2023-12-29T15:41:18;12.5;75.1
78514;SHT31;67814;51.976;5.810;2023-12-29T15:43:47;12.5;75.1
78514;SHT31;67814;51.976;5.810;2023-12-29T15:46:17;12.5;74.8
78514;SHT31;67814;51.976;5.810;2023-12-29T15:48:48;12.5;74.8
78514;SHT31;67814;51.976;5.810;2023-12-29T15:51:17;12.5;74.6
78514;SHT31;67814;51.976;5.810;2023-12-29T15:53:46;12.4;74.1
78514;SHT31;67814;51.976;5.810;2023-12-29T15:56:18;12.4;74.3
78514;SHT31;67814;51.976;5.810;2023-12-29T15:58:47;12.4;74.5
78514;SHT31;67814;51.976;5.810;2023-12-29T16:01:23;12.4;74.3
78514;SHT31;67814;51.976;5.810;2023-12-29T16:03:54;12.3;74.5
78514;SHT31;67814;51.976;5.810;2023-12-29T16:06:25;12.3;74.4
78514;SHT31;67814;51.976;5.810;2023-12-29T16:08:55;12.3;74.4
78514;SHT31;67814;51.976;5.810;2023-12-29T16:11:25;12.3;74.4
78514;SHT31;67814;51.976;5.810;2023-12-29T16:13:56;12.3;74.2
78514;SHT31;67814;51.976;5.810;2023-12-29T16:16:26;12.3;73.9
78514;SHT31;67814;51.976;5.810;2023-12-29T16:18:56;12.3;74.2
78514;SHT31;67814;51.976;5.810;2023-12-29T16:21:25;12.3;73.8
78514;SHT31;67814;51.976;5.810;2023-12-29T16:23:55;12.3;73.5
78514;SHT31;67814;51.976;5.810;2023-12-29T16:26:26;12.3;73.4